Terminal Aerodrome Forecast
Issued by NWS Upton, NY

Home | Current Version | Previous Version | Text Only | Print | Product List | Glossary On
Versions: 1 2 3 4 5 6 7 8 9 10 11 12 13 14 15 16 17 18 19 20 21 22 23 24 25 26 27 28 29 30
000
FTUS41 KOKX 210832 AAA
TAFBDR
TAF AMD
KBDR 210832Z 2109/2206 VRB05KT P6SM SCT250
     FM211200 22007KT P6SM SCT250
     FM211500 21013G21KT P6SM SCT250
     FM220100 21009KT P6SM SCT250
     FM220400 VRB05KT P6SM SCT040 SCT250=

USA.gov is the U.S. government's official web portal to all federal, state and local government web resources and services.